createdAt,value
2023-01-05T00:00:09.681Z,11.82
2023-01-05T00:02:36.358Z,11.82
2023-01-05T00:05:03.122Z,11.78
2023-01-05T00:07:29.653Z,11.74
2023-01-05T00:09:56.202Z,11.72
2023-01-05T00:12:41.337Z,11.72
2023-01-05T00:15:28.072Z,11.69
2023-01-05T00:18:13.238Z,11.67
2023-01-05T00:23:41.918Z,11.61
2023-01-05T00:26:08.534Z,11.58
2023-01-05T00:28:35.144Z,11.57
2023-01-05T00:31:03.839Z,11.62
2023-01-05T00:33:30.408Z,11.65
2023-01-05T00:35:56.967Z,11.67
2023-01-05T00:38:23.533Z,11.67
2023-01-05T00:40:50.200Z,11.68
2023-01-05T00:43:18.136Z,11.70
2023-01-05T00:45:44.840Z,11.71
2023-01-05T00:48:12.159Z,11.70
2023-01-05T00:50:38.752Z,11.68
2023-01-05T00:53:05.372Z,11.69
2023-01-05T00:55:33.172Z,11.60
2023-01-05T00:57:59.674Z,11.56
2023-01-05T01:00:26.244Z,11.51
2023-01-05T01:02:53.215Z,11.51
2023-01-05T01:05:19.927Z,11.49
2023-01-05T01:07:48.711Z,11.49
2023-01-05T01:10:16.139Z,11.46
2023-01-05T01:15:08.725Z,11.44
2023-01-05T01:17:35.128Z,11.43
2023-01-05T01:20:01.543Z,11.42
2023-01-05T01:22:27.949Z,11.46
2023-01-05T01:24:54.491Z,11.43
2023-01-05T01:27:20.914Z,11.44
2023-01-05T01:29:47.358Z,11.42
2023-01-05T01:32:13.805Z,11.44
2023-01-05T01:34:40.233Z,11.41
2023-01-05T01:37:06.656Z,11.42
2023-01-05T01:39:33.149Z,11.43
2023-01-05T01:41:59.561Z,11.40
2023-01-05T01:44:48.173Z,11.38
2023-01-05T01:47:18.821Z,11.38
2023-01-05T01:49:45.445Z,11.38
2023-01-05T01:52:12.067Z,11.39
2023-01-05T01:54:38.863Z,11.38
2023-01-05T01:57:05.372Z,11.36
2023-01-05T01:59:31.902Z,11.34
2023-01-05T02:02:00.976Z,11.37
2023-01-05T02:04:29.794Z,11.40
2023-01-05T02:06:56.298Z,11.41
2023-01-05T02:09:22.732Z,11.45
2023-01-05T02:11:58.447Z,11.43
2023-01-05T02:14:40.816Z,11.45
2023-01-05T02:17:21.889Z,11.47
2023-01-05T02:20:07.007Z,11.44
2023-01-05T02:22:53.434Z,11.45
2023-01-05T02:25:41.374Z,11.41
2023-01-05T02:28:19.786Z,11.41
2023-01-05T02:31:03.948Z,11.36
2023-01-05T02:33:43.522Z,11.42
2023-01-05T02:36:33.017Z,11.40
2023-01-05T02:39:25.830Z,11.44
2023-01-05T02:42:05.346Z,11.42
2023-01-05T02:44:33.537Z,11.43
2023-01-05T02:47:27.948Z,11.44
2023-01-05T02:50:00.895Z,11.45
2023-01-05T02:52:27.500Z,11.45
2023-01-05T02:55:01.379Z,11.47
2023-01-05T02:57:47.858Z,11.52
2023-01-05T03:00:18.938Z,11.49
2023-01-05T03:02:49.376Z,11.46
2023-01-05T03:05:22.975Z,11.51
2023-01-05T03:07:50.876Z,11.51
2023-01-05T03:10:36.048Z,11.50
2023-01-05T03:13:24.619Z,11.53
2023-01-05T03:15:52.347Z,11.50
2023-01-05T03:18:20.385Z,11.52
2023-01-05T03:20:49.448Z,11.57
2023-01-05T03:23:35.939Z,11.49
2023-01-05T03:26:21.023Z,11.52
2023-01-05T03:29:15.802Z,11.51
2023-01-05T03:32:06.253Z,11.50
2023-01-05T03:35:05.373Z,11.48
2023-01-05T03:37:35.633Z,11.48
2023-01-05T03:40:03.456Z,11.45
2023-01-05T03:42:30.411Z,11.50
2023-01-05T03:44:56.864Z,11.50
2023-01-05T03:47:23.831Z,11.48
2023-01-05T03:49:51.161Z,11.51
2023-01-05T03:52:17.591Z,11.55
2023-01-05T03:54:44.006Z,11.52
2023-01-05T03:57:10.455Z,11.49
2023-01-05T03:59:36.913Z,11.48
2023-01-05T04:02:04.774Z,11.44
2023-01-05T04:04:31.367Z,11.43
2023-01-05T04:06:57.815Z,11.46
2023-01-05T04:09:24.240Z,11.43
2023-01-05T04:11:50.660Z,11.46
2023-01-05T04:14:17.066Z,11.39
2023-01-05T04:16:43.503Z,11.44
2023-01-05T04:19:10.677Z,11.40
2023-01-05T04:21:37.144Z,11.44
2023-01-05T04:24:03.695Z,11.46
2023-01-05T04:26:30.103Z,11.41
2023-01-05T04:28:56.557Z,11.43
2023-01-05T04:31:23.007Z,11.40
2023-01-05T04:33:49.452Z,11.38
2023-01-05T04:36:15.852Z,11.40
2023-01-05T04:38:42.250Z,11.39
2023-01-05T04:41:08.647Z,11.36
2023-01-05T04:43:35.079Z,11.35
2023-01-05T04:46:01.577Z,11.33
2023-01-05T04:48:27.998Z,11.30
2023-01-05T04:50:55.349Z,11.29
2023-01-05T04:53:23.251Z,11.30
2023-01-05T04:55:50.435Z,11.25
2023-01-05T04:58:17.035Z,11.22
2023-01-05T05:00:43.494Z,11.25
2023-01-05T05:03:10.042Z,11.23
2023-01-05T05:05:36.568Z,11.15
2023-01-05T05:08:02.988Z,11.20
2023-01-05T05:10:29.392Z,11.19
2023-01-05T05:12:55.801Z,11.19
2023-01-05T05:15:22.225Z,11.21
2023-01-05T05:17:48.693Z,11.20
2023-01-05T05:20:15.263Z,11.22
2023-01-05T05:22:41.676Z,11.23
2023-01-05T05:25:08.566Z,11.24
2023-01-05T05:27:35.031Z,11.24
2023-01-05T05:30:01.443Z,11.25
2023-01-05T05:32:27.846Z,11.29
2023-01-05T05:34:54.293Z,11.33
2023-01-05T05:37:20.732Z,11.38
2023-01-05T05:39:47.143Z,11.37
2023-01-05T05:42:13.569Z,11.30
2023-01-05T05:44:39.978Z,11.32
2023-01-05T05:47:06.455Z,11.37
2023-01-05T05:49:32.971Z,11.39
2023-01-05T05:51:59.396Z,11.35
2023-01-05T05:54:26.027Z,11.32
2023-01-05T05:56:52.496Z,11.31
2023-01-05T05:59:18.948Z,11.32
2023-01-05T06:01:45.428Z,11.26
2023-01-05T06:04:12.132Z,11.27
2023-01-05T06:06:39.776Z,11.28
2023-01-05T06:09:06.386Z,11.34
2023-01-05T06:11:32.952Z,11.31
2023-01-05T06:13:59.468Z,11.29
2023-01-05T06:16:25.945Z,11.32
2023-01-05T06:18:52.427Z,11.36
2023-01-05T06:21:19.746Z,11.36
2023-01-05T06:23:46.148Z,11.32
2023-01-05T06:26:12.546Z,11.30
2023-01-05T06:28:39.014Z,11.28
2023-01-05T06:31:05.727Z,11.21
2023-01-05T06:33:32.238Z,11.27
2023-01-05T06:35:58.845Z,11.27
2023-01-05T06:38:26.097Z,11.29
2023-01-05T06:40:52.567Z,11.25
2023-01-05T06:43:19.117Z,11.18
2023-01-05T06:45:45.554Z,11.13
2023-01-05T06:48:12.013Z,11.10
2023-01-05T06:50:38.484Z,11.13
2023-01-05T06:53:04.905Z,11.09
2023-01-05T06:55:31.387Z,11.12
2023-01-05T06:58:00.999Z,11.05
2023-01-05T07:00:28.043Z,11.07
2023-01-05T07:02:54.486Z,11.11
2023-01-05T07:05:22.649Z,11.09
2023-01-05T07:07:49.050Z,11.09
2023-01-05T07:10:15.533Z,11.07
2023-01-05T07:12:41.925Z,11.10
2023-01-05T07:15:09.209Z,11.11
2023-01-05T07:17:36.561Z,11.06
2023-01-05T07:20:04.715Z,11.05
2023-01-05T07:22:31.119Z,11.11
2023-01-05T07:24:58.819Z,11.07
2023-01-05T07:27:25.620Z,11.12
2023-01-05T07:29:52.036Z,11.11
2023-01-05T07:32:18.636Z,11.12
2023-01-05T07:34:54.531Z,11.07
2023-01-05T07:37:22.013Z,11.11
2023-01-05T07:39:48.432Z,11.10
2023-01-05T07:42:14.854Z,11.14
2023-01-05T07:44:41.301Z,11.16
2023-01-05T07:47:07.715Z,11.18
2023-01-05T07:49:34.159Z,11.18
2023-01-05T07:52:00.672Z,11.16
2023-01-05T07:54:27.509Z,11.18
2023-01-05T07:56:54.104Z,11.15
2023-01-05T07:59:21.570Z,11.13
2023-01-05T08:01:51.878Z,11.13
2023-01-05T08:04:18.422Z,11.13
2023-01-05T08:06:44.970Z,11.14
2023-01-05T08:09:40.724Z,11.15
2023-01-05T08:12:07.342Z,11.16
2023-01-05T08:14:34.776Z,11.13
2023-01-05T08:17:02.232Z,11.13
2023-01-05T08:19:29.655Z,11.17
2023-01-05T08:21:56.085Z,11.11
2023-01-05T08:24:22.487Z,11.14
2023-01-05T08:26:50.759Z,11.17
2023-01-05T08:29:17.250Z,11.23
2023-01-05T08:31:43.735Z,11.21
2023-01-05T08:34:10.251Z,11.24
2023-01-05T08:36:37.670Z,11.27
2023-01-05T08:39:04.221Z,11.30
2023-01-05T08:41:33.449Z,11.28
2023-01-05T08:44:01.249Z,11.30
2023-01-05T08:46:29.712Z,11.26
2023-01-05T08:48:59.901Z,11.27
2023-01-05T08:51:26.807Z,11.27
2023-01-05T08:53:53.285Z,11.22
2023-01-05T08:56:20.263Z,11.23
2023-01-05T08:58:46.753Z,11.17
2023-01-05T09:01:16.138Z,11.22
2023-01-05T09:03:43.863Z,11.17
2023-01-05T09:06:12.389Z,11.23
2023-01-05T09:08:39.710Z,11.22
2023-01-05T09:11:17.805Z,11.24
2023-01-05T09:13:49.695Z,11.27
2023-01-05T09:16:29.008Z,11.25
2023-01-05T09:19:05.397Z,11.20
2023-01-05T09:21:31.816Z,11.22
2023-01-05T09:23:59.042Z,11.25
2023-01-05T09:26:25.478Z,11.30
2023-01-05T09:28:51.885Z,11.38
2023-01-05T09:31:20.374Z,11.40
2023-01-05T09:33:47.941Z,11.40
2023-01-05T09:36:16.377Z,11.47
2023-01-05T09:38:47.020Z,11.48
2023-01-05T09:41:26.004Z,11.46
2023-01-05T09:43:56.251Z,11.52
2023-01-05T09:46:37.707Z,11.55
2023-01-05T09:49:06.850Z,11.54
2023-01-05T09:51:33.862Z,11.58
2023-01-05T09:54:01.466Z,11.51
2023-01-05T09:57:08.480Z,11.45
2023-01-05T09:59:35.035Z,11.46
2023-01-05T10:02:05.460Z,11.46
2023-01-05T10:04:33.767Z,11.42
2023-01-05T10:07:04.351Z,11.35
2023-01-05T10:09:38.138Z,11.31
2023-01-05T10:12:43.078Z,11.25
2023-01-05T10:15:21.542Z,11.12
2023-01-05T10:17:48.077Z,11.02
2023-01-05T10:20:16.341Z,11.07
2023-01-05T10:22:58.696Z,11.05
2023-01-05T10:25:47.742Z,10.95
2023-01-05T10:28:32.717Z,10.91
2023-01-05T10:31:03.536Z,10.89
2023-01-05T10:33:54.646Z,10.93
2023-01-05T10:37:07.240Z,10.93
2023-01-05T10:40:11.127Z,10.94
2023-01-05T10:43:06.201Z,11.03
2023-01-05T10:45:32.649Z,11.08
2023-01-05T10:47:59.810Z,11.09
2023-01-05T10:50:35.980Z,11.04
2023-01-05T10:53:12.858Z,11.11
2023-01-05T10:55:59.322Z,11.03
2023-01-05T10:58:31.303Z,10.96
2023-01-05T11:01:19.640Z,11.00
2023-01-05T11:06:36.394Z,10.90
2023-01-05T11:09:21.640Z,10.92
2023-01-05T11:11:58.563Z,10.88
2023-01-05T11:14:25.852Z,10.84
2023-01-05T11:16:54.201Z,10.82
2023-01-05T11:19:31.333Z,10.79
2023-01-05T11:22:01.881Z,10.67
2023-01-05T11:24:31.375Z,10.73
2023-01-05T11:27:03.426Z,10.83
2023-01-05T11:29:30.914Z,10.79
2023-01-05T11:32:00.261Z,10.80
2023-01-05T11:34:29.867Z,10.83
2023-01-05T11:37:02.554Z,10.75
2023-01-05T11:39:33.607Z,10.79
2023-01-05T11:42:12.362Z,10.85
2023-01-05T11:44:40.869Z,10.88
2023-01-05T11:47:08.024Z,10.88
2023-01-05T11:49:35.137Z,10.86
2023-01-05T11:52:01.695Z,10.91
2023-01-05T11:54:36.993Z,10.91
2023-01-05T11:57:13.987Z,10.91
2023-01-05T11:59:40.840Z,10.91
2023-01-05T12:02:17.482Z,10.88
2023-01-05T12:05:18.077Z,10.85
2023-01-05T12:07:50.070Z,10.86
2023-01-05T12:10:45.425Z,10.82
2023-01-05T12:13:30.134Z,10.92
2023-01-05T12:16:17.761Z,10.95
2023-01-05T12:19:05.617Z,10.97
2023-01-05T12:21:38.784Z,11.00
2023-01-05T12:24:31.708Z,11.07
2023-01-05T12:27:24.526Z,11.04
2023-01-05T12:31:53.352Z,11.07
2023-01-05T12:36:07.891Z,10.92
2023-01-05T12:38:40.287Z,10.96
2023-01-05T12:41:26.707Z,10.94
2023-01-05T12:44:23.972Z,10.88
2023-01-05T12:47:15.149Z,10.79
2023-01-05T12:49:45.969Z,10.87
2023-01-05T12:52:21.189Z,10.90
2023-01-05T12:55:24.045Z,10.94
2023-01-05T12:58:14.944Z,10.99
2023-01-05T13:00:46.060Z,11.00
2023-01-05T13:03:44.709Z,11.05
2023-01-05T13:06:20.423Z,11.01
2023-01-05T13:09:03.472Z,10.96
2023-01-05T13:11:40.552Z,11.01
2023-01-05T13:14:16.044Z,11.07
2023-01-05T13:16:58.757Z,10.97
2023-01-05T13:19:29.899Z,10.97
2023-01-05T13:21:58.134Z,10.95
2023-01-05T13:24:31.294Z,10.85
2023-01-05T13:26:59.370Z,10.87
2023-01-05T13:29:36.091Z,10.85
2023-01-05T13:35:04.159Z,10.77
2023-01-05T13:37:49.570Z,10.74
2023-01-05T13:40:34.429Z,10.73
2023-01-05T13:43:34.775Z,10.73
2023-01-05T13:46:09.356Z,10.74
2023-01-05T13:49:02.908Z,10.74
2023-01-05T13:51:54.933Z,10.68
2023-01-05T13:54:59.838Z,10.66
2023-01-05T13:57:29.435Z,10.61
2023-01-05T14:00:07.725Z,10.59
2023-01-05T14:02:38.851Z,10.55
2023-01-05T14:05:30.260Z,10.51
2023-01-05T14:07:57.919Z,10.47
2023-01-05T14:10:27.466Z,10.42
2023-01-05T14:12:56.701Z,10.39
2023-01-05T14:15:37.408Z,10.36
2023-01-05T14:18:08.512Z,10.34
2023-01-05T14:20:49.428Z,10.31
2023-01-05T14:23:30.103Z,10.27
2023-01-05T14:26:03.202Z,10.20
2023-01-05T14:28:35.578Z,10.22
2023-01-05T14:31:07.943Z,10.22
2023-01-05T14:33:54.438Z,10.22
2023-01-05T14:36:41.635Z,10.22
2023-01-05T14:39:20.173Z,10.20
2023-01-05T14:42:13.953Z,10.18
2023-01-05T14:44:46.271Z,10.13
2023-01-05T14:47:13.133Z,10.09
2023-01-05T14:49:43.888Z,10.06
2023-01-05T14:52:19.863Z,10.05
2023-01-05T14:54:46.994Z,10.03
2023-01-05T14:57:20.622Z,10.00
2023-01-05T14:59:47.258Z,9.99
2023-01-05T15:02:18.840Z,9.95
2023-01-05T15:04:45.459Z,9.92
2023-01-05T15:07:26.404Z,9.88
2023-01-05T15:10:25.256Z,9.87
2023-01-05T15:13:02.225Z,9.86
2023-01-05T15:15:41.948Z,9.80
2023-01-05T15:18:20.927Z,9.76
2023-01-05T15:21:05.459Z,9.73
2023-01-05T15:24:09.542Z,9.70
2023-01-05T15:26:54.097Z,9.66
2023-01-05T15:30:05.629Z,9.62
2023-01-05T15:32:39.525Z,9.57
2023-01-05T15:35:29.968Z,9.56
2023-01-05T15:37:56.415Z,9.55
2023-01-05T15:40:22.774Z,9.54
2023-01-05T15:42:52.646Z,9.52
2023-01-05T15:45:23.260Z,9.52
2023-01-05T15:47:50.046Z,9.52
2023-01-05T15:50:22.535Z,9.46
2023-01-05T15:52:54.985Z,9.43
2023-01-05T15:55:21.813Z,9.42
2023-01-05T15:57:57.102Z,9.37
2023-01-05T16:00:27.283Z,9.36
2023-01-05T16:02:54.096Z,9.35
2023-01-05T16:05:22.999Z,9.32
2023-01-05T16:08:00.754Z,9.31
2023-01-05T16:10:39.474Z,9.32
2023-01-05T16:13:17.779Z,9.30
2023-01-05T16:15:47.870Z,9.29
2023-01-05T16:18:18.023Z,9.28
2023-01-05T16:20:47.188Z,9.29
2023-01-05T16:23:26.619Z,9.28
2023-01-05T16:25:56.675Z,9.22
2023-01-05T16:28:24.091Z,9.20
2023-01-05T16:30:51.792Z,9.18
2023-01-05T16:33:34.940Z,9.16
2023-01-05T16:36:09.213Z,9.15
2023-01-05T16:38:35.706Z,9.16
2023-01-05T16:41:13.342Z,9.14
2023-01-05T16:43:39.641Z,9.16
2023-01-05T16:46:20.435Z,9.16
2023-01-05T16:48:51.217Z,9.15
2023-01-05T16:51:18.624Z,9.16
2023-01-05T16:53:47.298Z,9.15
2023-01-05T16:56:32.038Z,9.11
2023-01-05T16:58:59.796Z,9.10
2023-01-05T17:01:37.592Z,9.06
2023-01-05T17:04:13.836Z,9.06
2023-01-05T17:06:45.163Z,9.04
2023-01-05T17:09:31.809Z,9.03
2023-01-05T17:11:58.268Z,9.01
2023-01-05T17:14:26.304Z,9.03
2023-01-05T17:16:54.362Z,8.99
2023-01-05T17:19:21.498Z,8.97
2023-01-05T17:21:55.161Z,8.95
2023-01-05T17:24:21.774Z,8.93
2023-01-05T17:26:48.275Z,8.93
2023-01-05T17:29:21.819Z,8.91
2023-01-05T17:31:48.511Z,8.89
2023-01-05T17:34:15.007Z,8.83
2023-01-05T17:36:41.644Z,8.82
2023-01-05T17:39:11.894Z,8.78
2023-01-05T17:41:38.323Z,8.77
2023-01-05T17:44:04.812Z,8.75
2023-01-05T17:46:32.974Z,8.71
2023-01-05T17:49:00.568Z,8.68
2023-01-05T17:51:30.523Z,8.65
2023-01-05T17:53:58.190Z,8.63
2023-01-05T17:56:25.173Z,8.60
2023-01-05T17:58:51.920Z,8.59
2023-01-05T18:01:18.656Z,8.57
2023-01-05T18:03:45.186Z,8.54
2023-01-05T18:06:11.727Z,8.49
2023-01-05T18:08:38.299Z,8.45
2023-01-05T18:11:05.829Z,8.39
2023-01-05T18:13:32.340Z,8.37
2023-01-05T18:18:30.359Z,8.32
2023-01-05T18:20:59.850Z,8.27
2023-01-05T18:23:26.295Z,8.23
2023-01-05T18:25:52.856Z,8.21
2023-01-05T18:28:19.332Z,8.18
2023-01-05T18:30:46.607Z,8.15
2023-01-05T18:35:44.389Z,8.14
2023-01-05T18:38:10.980Z,8.10
2023-01-05T18:40:37.996Z,8.09
2023-01-05T18:43:04.447Z,8.10
2023-01-05T18:45:40.334Z,8.08
2023-01-05T18:48:07.686Z,8.07
2023-01-05T18:50:34.175Z,8.07
2023-01-05T18:53:00.577Z,8.06
2023-01-05T18:55:27.196Z,8.04
2023-01-05T18:57:53.613Z,8.04
2023-01-05T19:00:20.158Z,8.02
2023-01-05T19:02:46.570Z,8.01
2023-01-05T19:05:13.078Z,8.00
2023-01-05T19:08:13.850Z,7.99
2023-01-05T19:10:40.487Z,7.99
2023-01-05T19:13:07.136Z,7.99
2023-01-05T19:15:36.433Z,8.00
2023-01-05T19:18:02.892Z,8.02
2023-01-05T19:20:29.376Z,8.03
2023-01-05T19:22:55.816Z,8.03
2023-01-05T19:25:22.315Z,8.06
2023-01-05T19:27:48.740Z,8.07
2023-01-05T19:30:17.611Z,8.09
2023-01-05T19:32:44.118Z,8.11
2023-01-05T19:35:10.526Z,8.12
2023-01-05T19:37:39.052Z,8.15
2023-01-05T19:40:05.948Z,8.18
2023-01-05T19:42:32.382Z,8.20
2023-01-05T19:44:59.527Z,8.22
2023-01-05T19:47:25.959Z,8.26
2023-01-05T19:49:55.176Z,8.30
2023-01-05T19:52:21.602Z,8.31
2023-01-05T19:54:48.334Z,8.33
2023-01-05T19:57:14.753Z,8.35
2023-01-05T19:59:41.159Z,8.37
2023-01-05T20:02:07.783Z,8.39
2023-01-05T20:04:35.284Z,8.40
2023-01-05T20:07:03.905Z,8.41
2023-01-05T20:09:30.654Z,8.41
2023-01-05T20:12:09.260Z,8.43
2023-01-05T20:14:40.093Z,8.44
2023-01-05T20:17:09.055Z,8.44
2023-01-05T20:19:36.816Z,8.46
2023-01-05T20:22:05.240Z,8.46
2023-01-05T20:24:33.439Z,8.49
2023-01-05T20:27:02.363Z,8.49
2023-01-05T20:29:29.376Z,8.52
2023-01-05T20:32:14.733Z,8.56
2023-01-05T20:34:43.219Z,8.58
2023-01-05T20:37:10.846Z,8.58
2023-01-05T20:39:39.673Z,8.61
2023-01-05T20:42:06.147Z,8.64
2023-01-05T20:44:36.309Z,8.64
2023-01-05T20:47:03.676Z,8.65
2023-01-05T20:49:31.340Z,8.67
2023-01-05T20:51:58.785Z,8.67
2023-01-05T20:54:25.701Z,8.68
2023-01-05T20:56:52.301Z,8.67
2023-01-05T20:59:27.081Z,8.69
2023-01-05T21:01:53.853Z,8.67
2023-01-05T21:04:20.792Z,8.67
2023-01-05T21:06:49.097Z,8.66
2023-01-05T21:09:15.540Z,8.65
2023-01-05T21:11:41.946Z,8.67
2023-01-05T21:14:08.944Z,8.67
2023-01-05T21:16:38.250Z,8.69
2023-01-05T21:19:05.752Z,8.69
2023-01-05T21:21:32.220Z,8.69
2023-01-05T21:23:58.928Z,8.71
2023-01-05T21:26:25.442Z,8.71
2023-01-05T21:28:53.078Z,8.73
2023-01-05T21:31:23.044Z,8.73
2023-01-05T21:33:49.639Z,8.73
2023-01-05T21:36:20.447Z,8.73
2023-01-05T21:39:00.743Z,8.71
2023-01-05T21:41:50.752Z,8.71
2023-01-05T21:44:17.753Z,8.70
2023-01-05T21:46:44.172Z,8.73
2023-01-05T21:49:11.556Z,8.75
2023-01-05T21:51:57.119Z,8.77
2023-01-05T21:54:42.286Z,8.78
2023-01-05T21:57:08.710Z,8.79
2023-01-05T21:59:35.249Z,8.81
2023-01-05T22:02:01.678Z,8.83
2023-01-05T22:04:28.113Z,8.85
2023-01-05T22:06:54.514Z,8.87
2023-01-05T22:09:20.947Z,8.88
2023-01-05T22:11:47.360Z,8.90
2023-01-05T22:14:13.893Z,8.92
2023-01-05T22:16:49.305Z,8.94
2023-01-05T22:19:15.743Z,8.95
2023-01-05T22:21:42.247Z,8.95
2023-01-05T22:24:09.501Z,8.97
2023-01-05T22:26:35.966Z,8.98
2023-01-05T22:29:02.463Z,8.98
2023-01-05T22:31:30.044Z,8.98
2023-01-05T22:33:59.133Z,9.00
2023-01-05T22:36:27.616Z,9.00
2023-01-05T22:38:55.438Z,9.02
2023-01-05T22:41:24.346Z,9.03
2023-01-05T22:43:51.362Z,9.03
2023-01-05T22:46:20.057Z,9.04
2023-01-05T22:48:47.736Z,9.05
2023-01-05T22:51:25.463Z,9.05
2023-01-05T22:53:52.399Z,9.05
2023-01-05T22:56:20.374Z,9.07
2023-01-05T22:58:46.998Z,9.06
2023-01-05T23:01:17.145Z,9.07
2023-01-05T23:03:43.571Z,9.06
2023-01-05T23:06:10.660Z,9.07
2023-01-05T23:08:38.835Z,9.07
2023-01-05T23:11:11.453Z,9.06
2023-01-05T23:13:38.378Z,9.06
2023-01-05T23:16:05.638Z,9.06
2023-01-05T23:18:34.546Z,9.04
2023-01-05T23:21:03.800Z,9.04
2023-01-05T23:23:30.305Z,9.04
2023-01-05T23:25:56.928Z,9.04
2023-01-05T23:28:24.442Z,9.03
2023-01-05T23:30:53.449Z,9.05
2023-01-05T23:33:21.580Z,9.05
2023-01-05T23:35:50.715Z,9.06
2023-01-05T23:38:17.422Z,9.05
2023-01-05T23:40:45.596Z,9.06
2023-01-05T23:43:13.143Z,9.05
2023-01-05T23:45:42.766Z,9.05
2023-01-05T23:48:09.792Z,9.05
2023-01-05T23:50:36.217Z,9.06
2023-01-05T23:53:03.593Z,9.07
2023-01-05T23:55:30.108Z,9.07
2023-01-05T23:57:56.738Z,9.07
